sensor_id;sensor_type;location;lat;lon;timestamp;pressure;altitude;pressure_sealevel;temperature;humidity
13387;BME280;6763;48.524;9.044;2023-04-23T00:02:15;97160.06;;;18.60;45.94
13387;BME280;6763;48.524;9.044;2023-04-23T00:04:48;97155.09;;;18.55;46.08
13387;BME280;6763;48.524;9.044;2023-04-23T00:07:14;97157.81;;;18.53;46.19
13387;BME280;6763;48.524;9.044;2023-04-23T00:09:42;97161.28;;;18.54;46.28
13387;BME280;6763;48.524;9.044;2023-04-23T00:12:07;97158.09;;;18.49;46.35
13387;BME280;6763;48.524;9.044;2023-04-23T00:14:33;97158.91;;;18.49;46.29
13387;BME280;6763;48.524;9.044;2023-04-23T00:16:58;97157.31;;;18.47;46.83
13387;BME280;6763;48.524;9.044;2023-04-23T00:19:24;97165.13;;;18.48;46.49
13387;BME280;6763;48.524;9.044;2023-04-23T00:21:50;97161.66;;;18.48;46.29
13387;BME280;6763;48.524;9.044;2023-04-23T00:24:15;97162.56;;;18.47;46.25
13387;BME280;6763;48.524;9.044;2023-04-23T00:26:40;97160.03;;;18.45;46.31
13387;BME280;6763;48.524;9.044;2023-04-23T00:29:06;97161.72;;;18.46;46.30
13387;BME280;6763;48.524;9.044;2023-04-23T00:31:31;97166.09;;;18.46;46.35
13387;BME280;6763;48.524;9.044;2023-04-23T00:33:56;97159.28;;;18.43;46.28
13387;BME280;6763;48.524;9.044;2023-04-23T00:36:22;97160.31;;;18.41;46.13
13387;BME280;6763;48.524;9.044;2023-04-23T00:38:47;97170.09;;;18.37;46.38
13387;BME280;6763;48.524;9.044;2023-04-23T00:41:13;97167.84;;;18.31;46.78
13387;BME280;6763;48.524;9.044;2023-04-23T00:43:39;97161.56;;;18.20;47.40
13387;BME280;6763;48.524;9.044;2023-04-23T00:46:05;97171.19;;;18.05;48.10
13387;BME280;6763;48.524;9.044;2023-04-23T00:48:32;97173.63;;;17.92;48.75
13387;BME280;6763;48.524;9.044;2023-04-23T00:50:59;97171.72;;;17.80;48.80
13387;BME280;6763;48.524;9.044;2023-04-23T00:53:27;97174.03;;;17.71;49.26
13387;BME280;6763;48.524;9.044;2023-04-23T00:55:52;97183.34;;;17.61;49.70
13387;BME280;6763;48.524;9.044;2023-04-23T00:58:18;97186.38;;;17.53;50.22
13387;BME280;6763;48.524;9.044;2023-04-23T01:00:45;97185.84;;;17.47;50.37
13387;BME280;6763;48.524;9.044;2023-04-23T01:03:12;97188.78;;;17.41;50.97
13387;BME280;6763;48.524;9.044;2023-04-23T01:05:40;97187.38;;;17.35;50.83
13387;BME280;6763;48.524;9.044;2023-04-23T01:08:06;97187.59;;;17.30;51.63
13387;BME280;6763;48.524;9.044;2023-04-23T01:10:32;97192.19;;;17.27;51.77
13387;BME280;6763;48.524;9.044;2023-04-23T01:12:58;97188.19;;;17.20;51.98
13387;BME280;6763;48.524;9.044;2023-04-23T01:15:24;97191.00;;;17.17;52.16
13387;BME280;6763;48.524;9.044;2023-04-23T01:17:49;97193.78;;;17.14;52.15
13387;BME280;6763;48.524;9.044;2023-04-23T01:20:14;97196.44;;;17.12;52.44
13387;BME280;6763;48.524;9.044;2023-04-23T01:22:40;97185.22;;;17.10;52.70
13387;BME280;6763;48.524;9.044;2023-04-23T01:25:06;97187.84;;;17.10;52.73
13387;BME280;6763;48.524;9.044;2023-04-23T01:27:32;97198.41;;;17.09;52.97
13387;BME280;6763;48.524;9.044;2023-04-23T01:30:03;97198.41;;;17.09;53.25
13387;BME280;6763;48.524;9.044;2023-04-23T01:32:30;97196.69;;;17.08;52.97
13387;BME280;6763;48.524;9.044;2023-04-23T01:34:56;97203.69;;;17.07;53.41
13387;BME280;6763;48.524;9.044;2023-04-23T01:37:22;97208.94;;;17.07;53.52
13387;BME280;6763;48.524;9.044;2023-04-23T01:39:48;97202.84;;;17.07;53.58
13387;BME280;6763;48.524;9.044;2023-04-23T01:42:14;97202.09;;;17.05;53.86
13387;BME280;6763;48.524;9.044;2023-04-23T01:44:40;97201.19;;;17.06;53.96
13387;BME280;6763;48.524;9.044;2023-04-23T01:47:05;97196.97;;;17.03;54.02
13387;BME280;6763;48.524;9.044;2023-04-23T01:49:31;97199.56;;;17.03;54.16
13387;BME280;6763;48.524;9.044;2023-04-23T01:51:56;97206.41;;;17.06;53.72
13387;BME280;6763;48.524;9.044;2023-04-23T01:54:21;97200.31;;;17.05;54.23
13387;BME280;6763;48.524;9.044;2023-04-23T01:56:47;97210.63;;;17.08;54.03
13387;BME280;6763;48.524;9.044;2023-04-23T01:59:12;97215.75;;;17.10;53.99
13387;BME280;6763;48.524;9.044;2023-04-23T02:01:45;97215.69;;;17.11;53.66
13387;BME280;6763;48.524;9.044;2023-04-23T02:04:11;97215.44;;;17.16;53.65
13387;BME280;6763;48.524;9.044;2023-04-23T02:06:38;97216.13;;;17.19;53.82
13387;BME280;6763;48.524;9.044;2023-04-23T02:09:03;97220.34;;;17.22;53.83
13387;BME280;6763;48.524;9.044;2023-04-23T02:11:29;97219.41;;;17.23;54.16
13387;BME280;6763;48.524;9.044;2023-04-23T02:13:55;97216.03;;;17.21;53.98
13387;BME280;6763;48.524;9.044;2023-04-23T02:16:20;97223.88;;;17.21;54.23
13387;BME280;6763;48.524;9.044;2023-04-23T02:18:48;97223.03;;;17.20;54.45
13387;BME280;6763;48.524;9.044;2023-04-23T02:21:13;97224.91;;;17.18;54.53
13387;BME280;6763;48.524;9.044;2023-04-23T02:23:39;97215.53;;;17.14;54.45
13387;BME280;6763;48.524;9.044;2023-04-23T02:26:04;97215.75;;;17.10;54.81
13387;BME280;6763;48.524;9.044;2023-04-23T02:28:30;97218.53;;;17.07;54.86
13387;BME280;6763;48.524;9.044;2023-04-23T02:30:55;97216.19;;;17.02;55.30
13387;BME280;6763;48.524;9.044;2023-04-23T02:33:21;97218.13;;;16.99;55.73
13387;BME280;6763;48.524;9.044;2023-04-23T02:35:46;97222.66;;;16.95;55.54
13387;BME280;6763;48.524;9.044;2023-04-23T02:38:12;97229.00;;;16.91;56.03
13387;BME280;6763;48.524;9.044;2023-04-23T02:40:37;97228.19;;;16.89;56.01
13387;BME280;6763;48.524;9.044;2023-04-23T02:43:02;97229.22;;;16.87;56.48
13387;BME280;6763;48.524;9.044;2023-04-23T02:45:28;97233.78;;;16.83;56.46
13387;BME280;6763;48.524;9.044;2023-04-23T02:47:53;97224.31;;;16.81;56.60
13387;BME280;6763;48.524;9.044;2023-04-23T02:50:18;97222.63;;;16.80;56.65
13387;BME280;6763;48.524;9.044;2023-04-23T02:52:44;97220.91;;;16.79;56.68
13387;BME280;6763;48.524;9.044;2023-04-23T02:55:09;97222.63;;;16.80;56.98
13387;BME280;6763;48.524;9.044;2023-04-23T02:57:35;97216.38;;;16.82;56.58
13387;BME280;6763;48.524;9.044;2023-04-23T03:00:01;97225.09;;;16.83;56.42
13387;BME280;6763;48.524;9.044;2023-04-23T03:02:30;97226.84;;;16.82;56.52
13387;BME280;6763;48.524;9.044;2023-04-23T03:04:55;97215.38;;;16.85;56.70
13387;BME280;6763;48.524;9.044;2023-04-23T03:07:21;97212.69;;;16.86;56.73
13387;BME280;6763;48.524;9.044;2023-04-23T03:09:46;97211.00;;;16.85;56.25
13387;BME280;6763;48.524;9.044;2023-04-23T03:12:11;97205.69;;;16.87;56.74
13387;BME280;6763;48.524;9.044;2023-04-23T03:14:37;97210.84;;;16.88;56.27
13387;BME280;6763;48.524;9.044;2023-04-23T03:17:02;97211.75;;;16.87;56.83
13387;BME280;6763;48.524;9.044;2023-04-23T03:19:27;97211.75;;;16.87;56.44
13387;BME280;6763;48.524;9.044;2023-04-23T03:21:53;97209.91;;;16.89;56.41
13387;BME280;6763;48.524;9.044;2023-04-23T03:24:18;97204.69;;;16.89;56.49
13387;BME280;6763;48.524;9.044;2023-04-23T03:26:43;97206.28;;;16.92;56.81
13387;BME280;6763;48.524;9.044;2023-04-23T03:29:09;97196.69;;;16.92;56.57
13387;BME280;6763;48.524;9.044;2023-04-23T03:31:34;97200.25;;;16.91;56.74
13387;BME280;6763;48.524;9.044;2023-04-23T03:34:00;97195.91;;;16.90;56.82
13387;BME280;6763;48.524;9.044;2023-04-23T03:36:25;97200.47;;;16.87;56.65
13387;BME280;6763;48.524;9.044;2023-04-23T03:38:51;97215.38;;;16.85;56.77
13387;BME280;6763;48.524;9.044;2023-04-23T03:41:16;97218.16;;;16.82;57.07
13387;BME280;6763;48.524;9.044;2023-04-23T03:43:42;97216.78;;;16.74;57.67
13387;BME280;6763;48.524;9.044;2023-04-23T03:46:07;97220.31;;;16.73;57.39
13387;BME280;6763;48.524;9.044;2023-04-23T03:48:32;97223.03;;;16.72;57.75
13387;BME280;6763;48.524;9.044;2023-04-23T03:50:58;97221.16;;;16.74;57.38
13387;BME280;6763;48.524;9.044;2023-04-23T03:53:23;97218.56;;;16.74;57.81
13387;BME280;6763;48.524;9.044;2023-04-23T03:55:48;97222.03;;;16.74;57.42
13387;BME280;6763;48.524;9.044;2023-04-23T03:58:14;97224.63;;;16.74;57.77
13387;BME280;6763;48.524;9.044;2023-04-23T04:00:39;97225.47;;;16.75;57.71
13387;BME280;6763;48.524;9.044;2023-04-23T04:03:05;97231.63;;;16.74;58.18
13387;BME280;6763;48.524;9.044;2023-04-23T04:05:30;97231.63;;;16.74;58.19
13387;BME280;6763;48.524;9.044;2023-04-23T04:07:56;97229.09;;;16.72;58.15
13387;BME280;6763;48.524;9.044;2023-04-23T04:10:21;97235.25;;;16.71;58.08
13387;BME280;6763;48.524;9.044;2023-04-23T04:12:46;97230.88;;;16.72;57.96
13387;BME280;6763;48.524;9.044;2023-04-23T04:15:13;97229.00;;;16.74;57.96
13387;BME280;6763;48.524;9.044;2023-04-23T04:17:38;97231.78;;;16.71;58.17
13387;BME280;6763;48.524;9.044;2023-04-23T04:20:05;97229.25;;;16.69;58.20
13387;BME280;6763;48.524;9.044;2023-04-23T04:22:32;97232.88;;;16.67;58.41
13387;BME280;6763;48.524;9.044;2023-04-23T04:24:58;97233.78;;;16.66;58.37
13387;BME280;6763;48.524;9.044;2023-04-23T04:27:23;97233.78;;;16.66;58.40
13387;BME280;6763;48.524;9.044;2023-04-23T04:29:48;97227.72;;;16.65;58.09
13387;BME280;6763;48.524;9.044;2023-04-23T04:32:13;97226.03;;;16.64;58.16
13387;BME280;6763;48.524;9.044;2023-04-23T04:34:39;97228.72;;;16.63;58.05
13387;BME280;6763;48.524;9.044;2023-04-23T04:37:04;97223.66;;;16.60;58.08
13387;BME280;6763;48.524;9.044;2023-04-23T04:39:30;97229.03;;;16.57;58.01
13387;BME280;6763;48.524;9.044;2023-04-23T04:41:55;97218.81;;;16.52;58.14
13387;BME280;6763;48.524;9.044;2023-04-23T04:44:21;97217.25;;;16.48;58.33
13387;BME280;6763;48.524;9.044;2023-04-23T04:46:47;97224.38;;;16.45;58.42
13387;BME280;6763;48.524;9.044;2023-04-23T04:49:12;97229.72;;;16.43;58.09
13387;BME280;6763;48.524;9.044;2023-04-23T04:51:39;97233.22;;;16.42;58.42
13387;BME280;6763;48.524;9.044;2023-04-23T04:54:05;97230.63;;;16.42;58.50
13387;BME280;6763;48.524;9.044;2023-04-23T04:56:35;97232.22;;;16.45;58.34
13387;BME280;6763;48.524;9.044;2023-04-23T04:59:00;97226.00;;;16.47;58.43
13387;BME280;6763;48.524;9.044;2023-04-23T05:01:27;97232.03;;;16.49;58.42
13387;BME280;6763;48.524;9.044;2023-04-23T05:03:54;97238.91;;;16.50;58.26
13387;BME280;6763;48.524;9.044;2023-04-23T05:06:19;97248.50;;;16.50;58.45
13387;BME280;6763;48.524;9.044;2023-04-23T05:08:45;97244.09;;;16.52;58.73
13387;BME280;6763;48.524;9.044;2023-04-23T05:11:16;97237.78;;;16.56;58.37
13387;BME280;6763;48.524;9.044;2023-04-23T05:13:46;97241.00;;;16.61;58.48
13387;BME280;6763;48.524;9.044;2023-04-23T05:16:12;97236.34;;;16.67;58.41
13387;BME280;6763;48.524;9.044;2023-04-23T05:18:38;97237.69;;;16.74;58.40
13387;BME280;6763;48.524;9.044;2023-04-23T05:21:04;97236.38;;;16.83;58.65
13387;BME280;6763;48.524;9.044;2023-04-23T05:23:30;97232.38;;;16.93;58.54
13387;BME280;6763;48.524;9.044;2023-04-23T05:25:56;97227.38;;;17.04;58.32
13387;BME280;6763;48.524;9.044;2023-04-23T05:28:23;97226.75;;;17.16;57.87
13387;BME280;6763;48.524;9.044;2023-04-23T05:30:48;97221.97;;;17.24;58.18
13387;BME280;6763;48.524;9.044;2023-04-23T05:33:14;97224.06;;;17.33;57.55
13387;BME280;6763;48.524;9.044;2023-04-23T05:35:40;97229.81;;;17.40;57.62
13387;BME280;6763;48.524;9.044;2023-04-23T05:38:05;97226.03;;;17.46;57.57
13387;BME280;6763;48.524;9.044;2023-04-23T05:40:31;97222.31;;;17.50;57.45
13387;BME280;6763;48.524;9.044;2023-04-23T05:42:59;97218.66;;;17.52;57.23
13387;BME280;6763;48.524;9.044;2023-04-23T05:45:25;97209.22;;;17.50;57.13
13387;BME280;6763;48.524;9.044;2023-04-23T05:47:50;97211.94;;;17.48;56.85
13387;BME280;6763;48.524;9.044;2023-04-23T05:50:16;97222.41;;;17.48;57.05
13387;BME280;6763;48.524;9.044;2023-04-23T05:52:41;97234.47;;;17.51;56.87
13387;BME280;6763;48.524;9.044;2023-04-23T05:55:07;97228.38;;;17.50;56.59
13387;BME280;6763;48.524;9.044;2023-04-23T05:57:34;97228.16;;;17.55;56.66
13387;BME280;6763;48.524;9.044;2023-04-23T06:00:00;97224.94;;;17.65;56.60
13387;BME280;6763;48.524;9.044;2023-04-23T06:02:25;97227.72;;;17.78;56.20
13387;BME280;6763;48.524;9.044;2023-04-23T06:04:52;97228.72;;;17.91;55.71
13387;BME280;6763;48.524;9.044;2023-04-23T06:07:17;97230.91;;;17.98;55.34
13387;BME280;6763;48.524;9.044;2023-04-23T06:09:43;97230.13;;;18.12;55.88
13387;BME280;6763;48.524;9.044;2023-04-23T06:12:10;97227.19;;;18.32;54.77
13387;BME280;6763;48.524;9.044;2023-04-23T06:14:35;97220.91;;;18.50;54.48
13387;BME280;6763;48.524;9.044;2023-04-23T06:17:00;97225.78;;;18.71;53.82
13387;BME280;6763;48.524;9.044;2023-04-23T06:19:26;97228.72;;;18.80;53.00
13387;BME280;6763;48.524;9.044;2023-04-23T06:21:52;97232.94;;;18.83;52.34
13387;BME280;6763;48.524;9.044;2023-04-23T06:24:17;97230.22;;;18.84;52.18
13387;BME280;6763;48.524;9.044;2023-04-23T06:26:43;97227.59;;;18.84;51.99
13387;BME280;6763;48.524;9.044;2023-04-23T06:29:08;97217.09;;;18.84;51.77
13387;BME280;6763;48.524;9.044;2023-04-23T06:31:33;97221.59;;;18.82;51.26
13387;BME280;6763;48.524;9.044;2023-04-23T06:33:59;97221.97;;;18.76;51.03
13387;BME280;6763;48.524;9.044;2023-04-23T06:36:25;97221.31;;;18.73;51.27
13387;BME280;6763;48.524;9.044;2023-04-23T06:38:50;97232.56;;;18.75;50.75
13387;BME280;6763;48.524;9.044;2023-04-23T06:41:16;97228.91;;;18.77;49.96
13387;BME280;6763;48.524;9.044;2023-04-23T06:43:41;97234.44;;;18.87;50.18
13387;BME280;6763;48.524;9.044;2023-04-23T06:46:06;97229.28;;;18.99;49.80
13387;BME280;6763;48.524;9.044;2023-04-23T06:48:32;97231.16;;;19.11;49.74
13387;BME280;6763;48.524;9.044;2023-04-23T06:50:57;97224.59;;;19.18;49.26
13387;BME280;6763;48.524;9.044;2023-04-23T06:53:23;97214.00;;;19.20;49.32
13387;BME280;6763;48.524;9.044;2023-04-23T06:55:48;97202.75;;;19.18;49.22
13387;BME280;6763;48.524;9.044;2023-04-23T06:58:15;97202.94;;;19.15;49.09
13387;BME280;6763;48.524;9.044;2023-04-23T07:00:40;97199.75;;;19.10;49.05
13387;BME280;6763;48.524;9.044;2023-04-23T07:03:06;97198.09;;;19.09;49.07
13387;BME280;6763;48.524;9.044;2023-04-23T07:05:31;97196.28;;;19.09;49.37
13387;BME280;6763;48.524;9.044;2023-04-23T07:07:57;97197.81;;;19.13;48.57
13387;BME280;6763;48.524;9.044;2023-04-23T07:10:22;97201.84;;;19.19;47.67
13387;BME280;6763;48.524;9.044;2023-04-23T07:12:48;97200.81;;;19.22;47.73
13387;BME280;6763;48.524;9.044;2023-04-23T07:15:14;97204.06;;;19.25;47.60
13387;BME280;6763;48.524;9.044;2023-04-23T07:17:39;97207.22;;;19.30;47.23
13387;BME280;6763;48.524;9.044;2023-04-23T07:20:06;97199.69;;;19.40;47.04
13387;BME280;6763;48.524;9.044;2023-04-23T07:22:33;97192.06;;;19.49;46.41
13387;BME280;6763;48.524;9.044;2023-04-23T07:25:00;97194.94;;;19.59;45.92
13387;BME280;6763;48.524;9.044;2023-04-23T07:27:25;97184.69;;;19.68;45.57
13387;BME280;6763;48.524;9.044;2023-04-23T07:29:51;97184.56;;;19.84;45.22
13387;BME280;6763;48.524;9.044;2023-04-23T07:32:16;97174.09;;;19.97;44.13
13387;BME280;6763;48.524;9.044;2023-04-23T07:34:42;97181.13;;;20.09;43.39
13387;BME280;6763;48.524;9.044;2023-04-23T07:37:07;97179.59;;;20.19;42.58
13387;BME280;6763;48.524;9.044;2023-04-23T07:39:33;97170.28;;;20.27;42.47
13387;BME280;6763;48.524;9.044;2023-04-23T07:41:58;97170.63;;;20.48;42.05
13387;BME280;6763;48.524;9.044;2023-04-23T07:44:24;97160.31;;;20.70;41.38
13387;BME280;6763;48.524;9.044;2023-04-23T07:46:49;97147.25;;;20.81;40.53
13387;BME280;6763;48.524;9.044;2023-04-23T07:49:15;97147.06;;;20.84;40.13
13387;BME280;6763;48.524;9.044;2023-04-23T07:51:40;97152.63;;;20.92;39.96
13387;BME280;6763;48.524;9.044;2023-04-23T07:54:07;97153.88;;;20.99;39.51
13387;BME280;6763;48.524;9.044;2023-04-23T07:56:32;97156.97;;;21.06;39.29
13387;BME280;6763;48.524;9.044;2023-04-23T07:58:58;97165.97;;;21.15;38.94
13387;BME280;6763;48.524;9.044;2023-04-23T08:01:24;97160.47;;;21.30;38.56
13387;BME280;6763;48.524;9.044;2023-04-23T08:03:50;97162.69;;;21.60;38.05
13387;BME280;6763;48.524;9.044;2023-04-23T08:06:15;97163.03;;;21.92;37.69
13387;BME280;6763;48.524;9.044;2023-04-23T08:08:42;97159.44;;;22.28;37.17
13387;BME280;6763;48.524;9.044;2023-04-23T08:11:07;97162.03;;;22.62;36.12
13387;BME280;6763;48.524;9.044;2023-04-23T08:13:33;97149.94;;;22.71;34.91
13387;BME280;6763;48.524;9.044;2023-04-23T08:15:58;97144.63;;;22.60;34.81
13387;BME280;6763;48.524;9.044;2023-04-23T08:18:24;97147.63;;;22.55;35.16
13387;BME280;6763;48.524;9.044;2023-04-23T08:20:49;97147.47;;;22.57;35.32
13387;BME280;6763;48.524;9.044;2023-04-23T08:23:14;97147.00;;;22.52;35.32
13387;BME280;6763;48.524;9.044;2023-04-23T08:25:40;97144.94;;;22.44;35.00
13387;BME280;6763;48.524;9.044;2023-04-23T08:28:05;97141.81;;;22.39;35.62
13387;BME280;6763;48.524;9.044;2023-04-23T08:30:31;97139.09;;;22.52;35.12
13387;BME280;6763;48.524;9.044;2023-04-23T08:32:57;97137.09;;;22.77;34.77
13387;BME280;6763;48.524;9.044;2023-04-23T08:35:22;97129.44;;;23.08;34.30
13387;BME280;6763;48.524;9.044;2023-04-23T08:37:48;97126.91;;;23.28;33.75
13387;BME280;6763;48.524;9.044;2023-04-23T08:40:14;97123.50;;;23.49;33.58
13387;BME280;6763;48.524;9.044;2023-04-23T08:42:49;97118.50;;;23.77;33.40
13387;BME280;6763;48.524;9.044;2023-04-23T08:45:17;97110.81;;;24.06;32.59
13387;BME280;6763;48.524;9.044;2023-04-23T08:47:43;97116.19;;;24.16;31.99
13387;BME280;6763;48.524;9.044;2023-04-23T08:50:14;97113.09;;;24.11;31.40
13387;BME280;6763;48.524;9.044;2023-04-23T08:52:52;97115.88;;;24.09;31.38
13387;BME280;6763;48.524;9.044;2023-04-23T08:55:18;97120.72;;;24.25;31.10
13387;BME280;6763;48.524;9.044;2023-04-23T08:57:45;97113.19;;;24.41;30.48
13387;BME280;6763;48.524;9.044;2023-04-23T09:00:13;97097.72;;;24.66;30.63
13387;BME280;6763;48.524;9.044;2023-04-23T09:02:41;97100.78;;;24.92;30.63
13387;BME280;6763;48.524;9.044;2023-04-23T09:05:07;97105.31;;;25.11;29.42
13387;BME280;6763;48.524;9.044;2023-04-23T09:07:34;97100.41;;;25.06;29.41
13387;BME280;6763;48.524;9.044;2023-04-23T09:10:04;97083.41;;;25.09;29.62
13387;BME280;6763;48.524;9.044;2023-04-23T09:12:31;97078.00;;;25.20;29.49
13387;BME280;6763;48.524;9.044;2023-04-23T09:15:00;97080.13;;;25.26;29.67
13387;BME280;6763;48.524;9.044;2023-04-23T09:17:28;97075.94;;;25.33;28.89
13387;BME280;6763;48.524;9.044;2023-04-23T09:19:54;97072.34;;;25.44;28.81
13387;BME280;6763;48.524;9.044;2023-04-23T09:22:43;97072.25;;;25.74;28.26
13387;BME280;6763;48.524;9.044;2023-04-23T09:25:10;97069.16;;;26.07;27.98
13387;BME280;6763;48.524;9.044;2023-04-23T09:27:36;97083.56;;;26.24;27.59
13387;BME280;6763;48.524;9.044;2023-04-23T09:30:03;97080.47;;;26.28;27.38
13387;BME280;6763;48.524;9.044;2023-04-23T09:32:32;97078.50;;;26.30;27.23
13387;BME280;6763;48.524;9.044;2023-04-23T09:34:58;97079.75;;;26.36;27.34
13387;BME280;6763;48.524;9.044;2023-04-23T09:37:25;97077.69;;;26.67;26.80
13387;BME280;6763;48.524;9.044;2023-04-23T09:39:51;97080.81;;;26.62;26.70
13387;BME280;6763;48.524;9.044;2023-04-23T09:42:22;97067.88;;;26.40;26.80
13387;BME280;6763;48.524;9.044;2023-04-23T09:45:20;97068.03;;;26.10;27.19
13387;BME280;6763;48.524;9.044;2023-04-23T09:47:54;97060.81;;;25.93;27.53
13387;BME280;6763;48.524;9.044;2023-04-23T09:50:38;97061.66;;;25.83;27.65
13387;BME280;6763;48.524;9.044;2023-04-23T09:53:07;97063.31;;;26.04;27.67
13387;BME280;6763;48.524;9.044;2023-04-23T09:55:35;97052.53;;;26.34;27.28
13387;BME280;6763;48.524;9.044;2023-04-23T09:58:14;97042.78;;;26.62;26.84
13387;BME280;6763;48.524;9.044;2023-04-23T10:00:40;97038.91;;;26.93;26.34
13387;BME280;6763;48.524;9.044;2023-04-23T10:03:06;97034.94;;;27.06;25.84
13387;BME280;6763;48.524;9.044;2023-04-23T10:05:40;97027.63;;;27.36;25.84
13387;BME280;6763;48.524;9.044;2023-04-23T10:08:06;97024.13;;;27.70;25.07
13387;BME280;6763;48.524;9.044;2023-04-23T10:10:33;97016.69;;;27.92;25.08
13387;BME280;6763;48.524;9.044;2023-04-23T10:12:58;97019.44;;;28.25;24.94
13387;BME280;6763;48.524;9.044;2023-04-23T10:15:25;97014.09;;;28.69;24.07
13387;BME280;6763;48.524;9.044;2023-04-23T10:17:52;97013.91;;;29.12;23.94
13387;BME280;6763;48.524;9.044;2023-04-23T10:20:20;97004.72;;;29.65;23.37
13387;BME280;6763;48.524;9.044;2023-04-23T10:22:45;96995.22;;;30.02;22.92
13387;BME280;6763;48.524;9.044;2023-04-23T10:25:12;96990.84;;;30.18;21.35
13387;BME280;6763;48.524;9.044;2023-04-23T10:27:42;96984.06;;;29.91;21.45
13387;BME280;6763;48.524;9.044;2023-04-23T10:30:09;96984.03;;;29.59;21.37
13387;BME280;6763;48.524;9.044;2023-04-23T10:32:36;96992.16;;;29.25;21.67
13387;BME280;6763;48.524;9.044;2023-04-23T10:35:03;96984.94;;;29.17;22.40
13387;BME280;6763;48.524;9.044;2023-04-23T10:37:29;96974.81;;;29.29;22.27
13387;BME280;6763;48.524;9.044;2023-04-23T10:40:00;96978.03;;;29.57;22.37
13387;BME280;6763;48.524;9.044;2023-04-23T10:42:28;96972.22;;;29.93;21.93
13387;BME280;6763;48.524;9.044;2023-04-23T10:44:55;96969.16;;;30.29;21.66
13387;BME280;6763;48.524;9.044;2023-04-23T10:47:22;96960.28;;;30.52;21.40
13387;BME280;6763;48.524;9.044;2023-04-23T10:49:47;96960.09;;;30.54;21.35
13387;BME280;6763;48.524;9.044;2023-04-23T10:52:15;96965.78;;;30.43;21.29
13387;BME280;6763;48.524;9.044;2023-04-23T10:54:42;96956.00;;;30.11;21.29
13387;BME280;6763;48.524;9.044;2023-04-23T10:57:09;96954.50;;;29.76;21.66
13387;BME280;6763;48.524;9.044;2023-04-23T10:59:40;96956.19;;;29.53;21.56
13387;BME280;6763;48.524;9.044;2023-04-23T11:02:06;96957.00;;;29.37;21.73
13387;BME280;6763;48.524;9.044;2023-04-23T11:04:33;96954.44;;;29.12;21.98
13387;BME280;6763;48.524;9.044;2023-04-23T11:07:07;96955.38;;;28.86;22.45
13387;BME280;6763;48.524;9.044;2023-04-23T11:09:47;96945.88;;;28.84;22.17
13387;BME280;6763;48.524;9.044;2023-04-23T11:12:29;96941.28;;;29.10;21.75
13387;BME280;6763;48.524;9.044;2023-04-23T11:14:56;96939.50;;;29.27;21.81
13387;BME280;6763;48.524;9.044;2023-04-23T11:20:11;96935.00;;;30.00;21.81
13387;BME280;6763;48.524;9.044;2023-04-23T11:22:50;96930.59;;;30.39;21.41
13387;BME280;6763;48.524;9.044;2023-04-23T11:25:24;96934.19;;;30.62;20.88
13387;BME280;6763;48.524;9.044;2023-04-23T11:27:52;96931.44;;;30.79;20.95
13387;BME280;6763;48.524;9.044;2023-04-23T11:30:22;96921.34;;;30.97;20.90
13387;BME280;6763;48.524;9.044;2023-04-23T11:32:49;96924.88;;;30.89;20.27
13387;BME280;6763;48.524;9.044;2023-04-23T11:35:19;96917.56;;;30.44;20.52
13387;BME280;6763;48.524;9.044;2023-04-23T11:37:45;96919.47;;;30.12;20.47
13387;BME280;6763;48.524;9.044;2023-04-23T11:40:15;96906.00;;;29.65;20.71
13387;BME280;6763;48.524;9.044;2023-04-23T11:42:49;96910.16;;;29.27;21.48
13387;BME280;6763;48.524;9.044;2023-04-23T11:45:23;96903.63;;;28.97;21.63
13387;BME280;6763;48.524;9.044;2023-04-23T11:47:51;96898.41;;;28.87;22.01
13387;BME280;6763;48.524;9.044;2023-04-23T11:50:24;96890.78;;;28.84;21.39
13387;BME280;6763;48.524;9.044;2023-04-23T11:52:50;96892.06;;;28.80;21.54
13387;BME280;6763;48.524;9.044;2023-04-23T11:55:17;96885.22;;;28.70;21.73
13387;BME280;6763;48.524;9.044;2023-04-23T11:57:46;96899.88;;;28.66;21.97
13387;BME280;6763;48.524;9.044;2023-04-23T12:00:20;96888.56;;;28.80;22.00
13387;BME280;6763;48.524;9.044;2023-04-23T12:02:59;96886.47;;;29.16;21.88
13387;BME280;6763;48.524;9.044;2023-04-23T12:08:06;96882.81;;;29.81;21.23
13387;BME280;6763;48.524;9.044;2023-04-23T12:10:33;96867.09;;;30.10;20.85
13387;BME280;6763;48.524;9.044;2023-04-23T12:12:58;96868.50;;;30.45;20.38
13387;BME280;6763;48.524;9.044;2023-04-23T12:15:23;96857.56;;;30.86;20.04
13387;BME280;6763;48.524;9.044;2023-04-23T12:17:49;96863.91;;;30.85;19.80
13387;BME280;6763;48.524;9.044;2023-04-23T12:20:17;96848.28;;;30.74;19.93
13387;BME280;6763;48.524;9.044;2023-04-23T12:22:43;96844.84;;;30.65;20.08
13387;BME280;6763;48.524;9.044;2023-04-23T12:25:08;96840.16;;;30.90;20.15
13387;BME280;6763;48.524;9.044;2023-04-23T12:27:38;96829.97;;;31.39;20.09
13387;BME280;6763;48.524;9.044;2023-04-23T12:30:06;96822.38;;;31.94;19.45
13387;BME280;6763;48.524;9.044;2023-04-23T12:32:32;96826.84;;;32.67;18.81
13387;BME280;6763;48.524;9.044;2023-04-23T12:34:58;96820.50;;;33.31;18.55
13387;BME280;6763;48.524;9.044;2023-04-23T12:37:28;96811.41;;;33.81;17.92
13387;BME280;6763;48.524;9.044;2023-04-23T12:39:54;96808.53;;;34.17;17.47
13387;BME280;6763;48.524;9.044;2023-04-23T12:42:23;96816.22;;;34.20;17.36
13387;BME280;6763;48.524;9.044;2023-04-23T12:44:52;96804.41;;;34.14;17.39
13387;BME280;6763;48.524;9.044;2023-04-23T12:47:19;96801.06;;;34.06;17.23
13387;BME280;6763;48.524;9.044;2023-04-23T12:49:45;96806.22;;;33.52;17.21
13387;BME280;6763;48.524;9.044;2023-04-23T12:52:11;96818.41;;;32.19;18.43
13387;BME280;6763;48.524;9.044;2023-04-23T12:54:38;96813.75;;;30.95;19.34
13387;BME280;6763;48.524;9.044;2023-04-23T12:57:06;96809.59;;;29.92;20.16
13387;BME280;6763;48.524;9.044;2023-04-23T12:59:32;96817.66;;;29.11;21.59
13387;BME280;6763;48.524;9.044;2023-04-23T13:01:59;96813.06;;;28.47;22.00
13387;BME280;6763;48.524;9.044;2023-04-23T13:04:35;96796.19;;;27.81;23.39
13387;BME280;6763;48.524;9.044;2023-04-23T13:07:01;96788.81;;;27.23;24.37
13387;BME280;6763;48.524;9.044;2023-04-23T13:09:27;96784.03;;;26.83;25.80
13387;BME280;6763;48.524;9.044;2023-04-23T13:11:53;96793.50;;;26.68;25.60
13387;BME280;6763;48.524;9.044;2023-04-23T13:14:19;96795.69;;;26.55;26.05